Time;durP1;ratioP1;P1;durP2;ratioP2;P2;SDS_P1;SDS_P2;PMS_P1;PMS_P2;Temp;Humidity;BMP_temperature;BMP_pressure;BME280_temperature;BME280_humidity;BME280_pressure;Samples;Min_cycle;Max_cycle;Signal;HPM_P1;HPM_P2
2023/10/19 00:01:55;;;;;;;15.53;12.10;;;;;;;;;;5091240;28;20493;-83
2023/10/19 00:04:23;;;;;;;12.60;11.30;;;;;;;;;;5092451;28;20490;-82
2023/10/19 00:06:50;;;;;;;19.53;13.00;;;;;;;;;;5092351;28;20306;-82
2023/10/19 00:09:16;;;;;;;13.60;11.90;;;;;;;;;;5092647;28;20525;-80
2023/10/19 00:11:42;;;;;;;15.63;12.70;;;;;;;;;;5091667;28;20839;-83
2023/10/19 00:14:15;;;;;;;13.70;11.73;;;;;;;;;;5090740;28;20464;-82
2023/10/19 00:16:41;;;;;;;17.40;13.37;;;;;;;;;;5091530;28;20232;-83
2023/10/19 00:19:10;;;;;;;17.67;14.20;;;;;;;;;;5091792;28;20442;-83
2023/10/19 00:21:50;;;;;;;18.03;12.67;;;;;;;;;;5089998;28;21026;-83
2023/10/19 00:24:17;;;;;;;20.50;14.83;;;;;;;;;;5091630;28;20514;-83
2023/10/19 00:26:43;;;;;;;17.73;14.50;;;;;;;;;;5091135;28;20881;-82
2023/10/19 00:29:30;;;;;;;21.00;14.53;;;;;;;;;;5090024;28;20511;-83
2023/10/19 00:31:57;;;;;;;16.37;14.10;;;;;;;;;;5090569;28;20477;-82
2023/10/19 00:34:24;;;;;;;20.00;13.63;;;;;;;;;;5089696;28;21000;-82
2023/10/19 00:36:52;;;;;;;18.27;14.53;;;;;;;;;;5090752;28;20554;-82
2023/10/19 00:39:21;;;;;;;18.37;13.97;;;;;;;;;;5091053;28;20465;-81
2023/10/19 00:41:48;;;;;;;19.60;14.90;;;;;;;;;;5090700;28;20494;-82
2023/10/19 00:44:18;;;;;;;20.70;16.70;;;;;;;;;;5089820;28;20455;-83
2023/10/19 00:46:50;;;;;;;17.47;14.37;;;;;;;;;;5090288;28;20481;-84
2023/10/19 00:49:17;;;;;;;23.00;15.57;;;;;;;;;;5089524;28;20438;-82
2023/10/19 00:51:53;;;;;;;22.83;16.40;;;;;;;;;;5090177;28;20559;-82
2023/10/19 00:54:26;;;;;;;22.47;16.30;;;;;;;;;;5090064;28;20465;-83
2023/10/19 00:56:56;;;;;;;18.80;15.43;;;;;;;;;;5090585;28;20504;-81
2023/10/19 00:59:23;;;;;;;22.80;15.83;;;;;;;;;;5083184;28;20443;-82
2023/10/19 01:01:53;;;;;;;23.27;17.10;;;;;;;;;;5077054;28;20482;-82
2023/10/19 01:04:22;;;;;;;22.80;16.23;;;;;;;;;;5076660;28;20565;-83
2023/10/19 01:07:00;;;;;;;27.17;15.87;;;;;;;;;;5075247;28;20471;-83
2023/10/19 01:09:28;;;;;;;24.33;17.50;;;;;;;;;;5075420;28;20454;-83
2023/10/19 01:11:55;;;;;;;23.43;17.03;;;;;;;;;;5076429;28;20471;-83
2023/10/19 01:14:23;;;;;;;25.97;17.87;;;;;;;;;;5076257;28;20502;-82
2023/10/19 01:16:50;;;;;;;26.93;19.30;;;;;;;;;;5076299;28;20859;-83
2023/10/19 01:19:20;;;;;;;26.80;18.20;;;;;;;;;;5076599;28;20443;-81
2023/10/19 01:21:51;;;;;;;23.13;17.90;;;;;;;;;;5074914;28;20463;-83
2023/10/19 01:24:26;;;;;;;31.57;18.60;;;;;;;;;;5076234;28;21026;-82
2023/10/19 01:26:53;;;;;;;23.87;16.83;;;;;;;;;;5074464;28;20458;-83
2023/10/19 01:29:26;;;;;;;32.47;17.60;;;;;;;;;;5076229;28;20478;-82
2023/10/19 01:32:05;;;;;;;30.50;19.33;;;;;;;;;;5075972;28;20470;-82
2023/10/19 01:34:33;;;;;;;26.63;17.07;;;;;;;;;;5076209;28;20513;-82
2023/10/19 01:37:02;;;;;;;26.97;18.00;;;;;;;;;;5075570;28;20467;-82
2023/10/19 01:39:29;;;;;;;27.43;19.00;;;;;;;;;;5075722;28;20439;-82
2023/10/19 01:41:57;;;;;;;23.50;17.77;;;;;;;;;;5075320;28;20470;-82
2023/10/19 01:44:24;;;;;;;27.47;20.27;;;;;;;;;;5075647;28;20501;-83
2023/10/19 01:46:51;;;;;;;28.37;19.50;;;;;;;;;;5075421;28;20463;-83
2023/10/19 01:49:25;;;;;;;29.27;20.73;;;;;;;;;;5075259;28;20478;-83
2023/10/19 01:51:52;;;;;;;25.67;18.70;;;;;;;;;;5075553;28;20486;-83
2023/10/19 01:54:18;;;;;;;26.67;19.23;;;;;;;;;;5075073;28;20467;-83
2023/10/19 01:56:46;;;;;;;26.03;19.40;;;;;;;;;;5074789;28;20522;-82
2023/10/19 01:59:13;;;;;;;25.93;19.00;;;;;;;;;;5076139;28;20458;-82
2023/10/19 02:01:44;;;;;;;26.70;19.53;;;;;;;;;;5073891;28;20463;-83
2023/10/19 02:04:13;;;;;;;27.17;21.57;;;;;;;;;;5075372;28;20467;-83
2023/10/19 02:06:40;;;;;;;26.63;19.40;;;;;;;;;;5074631;28;20469;-83
2023/10/19 02:09:16;;;;;;;30.67;20.20;;;;;;;;;;5074991;28;20565;-82
2023/10/19 02:11:42;;;;;;;30.77;22.10;;;;;;;;;;5073837;28;20839;-83
2023/10/19 02:14:14;;;;;;;26.70;19.83;;;;;;;;;;5073577;28;20566;-83
2023/10/19 02:16:40;;;;;;;31.50;20.93;;;;;;;;;;5074480;28;20653;-83
2023/10/19 02:19:07;;;;;;;29.90;20.30;;;;;;;;;;5075336;28;20450;-82
2023/10/19 02:21:37;;;;;;;29.50;20.33;;;;;;;;;;5073017;28;20542;-83
2023/10/19 02:24:04;;;;;;;27.17;19.60;;;;;;;;;;5074486;28;20471;-82
2023/10/19 02:26:31;;;;;;;32.47;22.67;;;;;;;;;;5074228;28;20520;-82
2023/10/19 02:28:58;;;;;;;30.17;21.80;;;;;;;;;;5074672;28;20562;-84
2023/10/19 02:31:25;;;;;;;28.47;21.47;;;;;;;;;;5074550;28;20473;-83
2023/10/19 02:33:58;;;;;;;29.40;21.20;;;;;;;;;;5074196;28;20467;-83
2023/10/19 02:36:28;;;;;;;30.13;22.37;;;;;;;;;;5073747;28;20516;-83
2023/10/19 02:38:55;;;;;;;34.17;22.30;;;;;;;;;;5074873;28;20523;-83
2023/10/19 02:41:20;;;;;;;31.77;20.40;;;;;;;;;;5074148;28;20467;-83
2023/10/19 02:43:51;;;;;;;35.90;24.23;;;;;;;;;;5073760;28;20546;-83
2023/10/19 02:46:17;;;;;;;34.70;23.67;;;;;;;;;;5072468;28;20252;-83
2023/10/19 02:48:45;;;;;;;28.70;21.90;;;;;;;;;;5072591;28;20989;-83
2023/10/19 02:51:11;;;;;;;32.83;23.50;;;;;;;;;;5073732;28;20478;-83
2023/10/19 02:53:38;;;;;;;33.40;22.80;;;;;;;;;;5074265;28;20831;-82
2023/10/19 02:56:14;;;;;;;32.87;23.10;;;;;;;;;;5073551;28;20251;-83
2023/10/19 02:58:42;;;;;;;38.10;23.10;;;;;;;;;;5073092;28;20531;-82
2023/10/19 03:01:13;;;;;;;35.90;24.20;;;;;;;;;;5073632;28;20459;-83
2023/10/19 03:03:39;;;;;;;34.30;23.10;;;;;;;;;;5073677;28;20470;-83
2023/10/19 03:06:07;;;;;;;35.53;25.07;;;;;;;;;;5073470;28;20459;-82
2023/10/19 03:08:35;;;;;;;32.17;22.00;;;;;;;;;;5074307;28;20221;-85
2023/10/19 03:11:04;;;;;;;33.13;24.60;;;;;;;;;;5073662;28;20463;-81
2023/10/19 03:13:32;;;;;;;34.70;23.80;;;;;;;;;;5074030;28;20471;-83
2023/10/19 03:15:59;;;;;;;38.27;24.20;;;;;;;;;;5072423;28;21007;-83
2023/10/19 03:18:25;;;;;;;30.13;23.13;;;;;;;;;;5074090;28;20459;-83
2023/10/19 03:20:51;;;;;;;38.13;23.90;;;;;;;;;;5072213;28;20991;-83
2023/10/19 03:23:20;;;;;;;41.73;25.93;;;;;;;;;;5073495;28;20439;-83
2023/10/19 03:25:55;;;;;;;41.93;25.80;;;;;;;;;;5072306;28;20476;-82
2023/10/19 03:28:25;;;;;;;34.17;23.20;;;;;;;;;;5073673;28;20482;-81
2023/10/19 03:30:51;;;;;;;36.60;24.57;;;;;;;;;;5073765;28;20489;-81
2023/10/19 03:33:18;;;;;;;32.87;24.43;;;;;;;;;;5073549;28;20962;-81
2023/10/19 03:35:44;;;;;;;34.63;25.77;;;;;;;;;;5072016;28;21007;-81
2023/10/19 03:38:16;;;;;;;40.27;26.47;;;;;;;;;;5073915;28;20441;-82
2023/10/19 03:40:51;;;;;;;33.10;25.57;;;;;;;;;;5073078;28;20528;-82
2023/10/19 03:43:21;;;;;;;35.00;24.07;;;;;;;;;;5073586;28;20431;-83
2023/10/19 03:45:52;;;;;;;33.50;24.30;;;;;;;;;;5073156;28;20493;-82
2023/10/19 03:48:23;;;;;;;38.50;27.50;;;;;;;;;;5073570;28;20482;-83
2023/10/19 03:50:51;;;;;;;34.83;25.40;;;;;;;;;;5073372;28;20466;-83
2023/10/19 03:53:18;;;;;;;37.00;26.50;;;;;;;;;;5072228;28;20462;-83
2023/10/19 03:55:47;;;;;;;40.07;25.47;;;;;;;;;;5073040;28;20491;-83
2023/10/19 03:58:14;;;;;;;37.47;25.17;;;;;;;;;;5073165;28;20473;-81
2023/10/19 04:00:42;;;;;;;37.30;25.97;;;;;;;;;;5072640;28;21066;-81
2023/10/19 04:03:08;;;;;;;39.83;27.23;;;;;;;;;;5073106;28;20443;-83
2023/10/19 04:05:38;;;;;;;36.27;26.17;;;;;;;;;;5073203;28;20455;-83
2023/10/19 04:08:12;;;;;;;44.43;28.40;;;;;;;;;;5073890;28;20860;-83
2023/10/19 04:10:44;;;;;;;37.37;26.97;;;;;;;;;;5072852;28;20994;-82
2023/10/19 04:13:12;;;;;;;43.73;26.30;;;;;;;;;;5073498;28;20789;-84
2023/10/19 04:15:38;;;;;;;42.10;27.27;;;;;;;;;;5073025;28;20477;-83
2023/10/19 04:18:10;;;;;;;37.00;24.80;;;;;;;;;;5073253;28;20917;-83
2023/10/19 04:20:42;;;;;;;35.80;24.83;;;;;;;;;;5071631;28;20462;-83
2023/10/19 04:23:10;;;;;;;44.87;28.27;;;;;;;;;;5073366;28;20423;-84
2023/10/19 04:25:37;;;;;;;37.30;26.47;;;;;;;;;;5073024;28;20546;-84
2023/10/19 04:28:04;;;;;;;41.00;27.90;;;;;;;;;;5073375;28;20442;-82
2023/10/19 04:30:36;;;;;;;40.90;27.27;;;;;;;;;;5072460;28;20952;-84
2023/10/19 04:33:04;;;;;;;38.93;26.67;;;;;;;;;;5073062;28;20458;-83
2023/10/19 04:35:34;;;;;;;39.67;27.50;;;;;;;;;;5074607;28;20534;-83
2023/10/19 04:38:01;;;;;;;38.80;27.60;;;;;;;;;;5076981;28;20449;-83
2023/10/19 04:40:27;;;;;;;41.50;29.03;;;;;;;;;;5076424;28;20491;-84
2023/10/19 04:42:55;;;;;;;44.13;28.87;;;;;;;;;;5076894;28;20446;-83
2023/10/19 04:45:21;;;;;;;43.90;29.80;;;;;;;;;;5076269;28;20459;-83
2023/10/19 04:47:54;;;;;;;44.47;28.53;;;;;;;;;;5076396;28;20458;-83
2023/10/19 04:50:21;;;;;;;39.03;28.93;;;;;;;;;;5076568;28;20845;-83
2023/10/19 04:52:47;;;;;;;46.03;31.43;;;;;;;;;;5076764;28;20438;-84
2023/10/19 04:55:13;;;;;;;38.43;27.17;;;;;;;;;;5076369;28;20463;-83
2023/10/19 04:57:40;;;;;;;48.83;31.00;;;;;;;;;;5076387;28;20928;-84
2023/10/19 05:00:07;;;;;;;41.30;29.03;;;;;;;;;;5075194;28;20438;-83
2023/10/19 05:02:34;;;;;;;42.97;27.27;;;;;;;;;;5055728;28;20456;-83
2023/10/19 05:05:01;;;;;;;45.47;31.27;;;;;;;;;;5056206;28;20506;-83
2023/10/19 05:07:28;;;;;;;42.70;30.23;;;;;;;;;;5055975;28;20483;-84
2023/10/19 05:09:55;;;;;;;45.33;30.13;;;;;;;;;;5055823;28;20480;-82
2023/10/19 05:12:22;;;;;;;46.13;29.80;;;;;;;;;;5055589;28;21077;-82
2023/10/19 05:14:48;;;;;;;45.00;28.63;;;;;;;;;;5056091;28;20464;-82
2023/10/19 05:17:15;;;;;;;47.67;30.20;;;;;;;;;;5055732;28;21024;-83
2023/10/19 05:19:41;;;;;;;46.53;30.57;;;;;;;;;;5055769;28;20432;-83
2023/10/19 05:22:10;;;;;;;41.57;29.90;;;;;;;;;;5055795;28;20479;-83
2023/10/19 05:24:36;;;;;;;40.33;28.97;;;;;;;;;;5054594;28;20947;-83
2023/10/19 05:27:03;;;;;;;39.00;26.87;;;;;;;;;;5056280;28;20844;-81
2023/10/19 05:29:32;;;;;;;39.90;27.20;;;;;;;;;;5054461;28;20504;-84
2023/10/19 05:31:58;;;;;;;43.57;29.00;;;;;;;;;;5055625;28;20824;-83
2023/10/19 05:34:26;;;;;;;43.70;27.57;;;;;;;;;;5056327;28;20537;-83
2023/10/19 05:36:54;;;;;;;43.93;28.40;;;;;;;;;;5055646;28;20529;-83
2023/10/19 05:39:27;;;;;;;41.10;27.33;;;;;;;;;;5056301;28;20498;-81
2023/10/19 05:41:53;;;;;;;40.50;28.90;;;;;;;;;;5055686;28;20483;-83
2023/10/19 05:44:20;;;;;;;37.60;25.03;;;;;;;;;;5054714;28;20893;-82
2023/10/19 05:46:46;;;;;;;42.07;28.27;;;;;;;;;;5054522;28;20498;-83
2023/10/19 05:49:13;;;;;;;42.10;26.60;;;;;;;;;;5054669;28;20479;-84
2023/10/19 05:51:41;;;;;;;45.27;26.60;;;;;;;;;;5055385;28;20848;-83
2023/10/19 05:54:08;;;;;;;36.70;26.20;;;;;;;;;;5055319;28;20468;-84
2023/10/19 05:56:36;;;;;;;43.20;26.80;;;;;;;;;;5054824;28;20558;-83
2023/10/19 05:59:04;;;;;;;38.37;28.57;;;;;;;;;;5055642;28;20432;-83
2023/10/19 06:01:31;;;;;;;38.80;25.43;;;;;;;;;;5055710;28;20988;-84
2023/10/19 06:03:57;;;;;;;36.60;23.37;;;;;;;;;;5055845;28;20456;-83
2023/10/19 06:06:24;;;;;;;38.47;24.30;;;;;;;;;;5055131;28;20468;-83
2023/10/19 06:08:53;;;;;;;32.17;22.37;;;;;;;;;;5055294;28;20483;-84
2023/10/19 06:11:19;;;;;;;34.80;23.23;;;;;;;;;;5054703;28;21039;-83
2023/10/19 06:13:47;;;;;;;34.97;25.00;;;;;;;;;;5055212;28;20464;-82
2023/10/19 06:16:14;;;;;;;41.53;25.10;;;;;;;;;;5055258;28;20468;-83
2023/10/19 06:18:40;;;;;;;33.80;23.53;;;;;;;;;;5054762;28;20445;-83
2023/10/19 06:21:07;;;;;;;31.63;22.23;;;;;;;;;;5054296;28;20468;-83
2023/10/19 06:23:33;;;;;;;37.33;23.37;;;;;;;;;;5054462;28;20464;-82
2023/10/19 06:26:04;;;;;;;34.73;23.60;;;;;;;;;;5053845;28;20463;-82
2023/10/19 06:28:34;;;;;;;38.30;25.10;;;;;;;;;;5054802;28;20929;-83
2023/10/19 06:31:02;;;;;;;32.40;22.93;;;;;;;;;;5054583;28;20871;-82
2023/10/19 06:33:28;;;;;;;30.20;21.40;;;;;;;;;;5054952;28;20460;-82
2023/10/19 06:35:55;;;;;;;30.87;20.00;;;;;;;;;;5054567;28;20471;-83
2023/10/19 06:38:21;;;;;;;29.50;19.37;;;;;;;;;;5054757;28;20444;-83
2023/10/19 06:40:48;;;;;;;27.50;20.47;;;;;;;;;;5054387;28;20471;-83
2023/10/19 06:43:14;;;;;;;29.13;21.00;;;;;;;;;;5054465;28;20450;-83
2023/10/19 06:45:41;;;;;;;28.50;20.90;;;;;;;;;;5054059;28;20521;-81
2023/10/19 06:48:09;;;;;;;27.47;19.27;;;;;;;;;;5053089;28;20526;-82
2023/10/19 06:50:36;;;;;;;28.40;20.67;;;;;;;;;;5053673;28;20456;-82
2023/10/19 06:53:05;;;;;;;28.43;19.57;;;;;;;;;;5053218;28;20534;-82
2023/10/19 06:55:31;;;;;;;29.87;20.83;;;;;;;;;;5052904;28;20790;-82
2023/10/19 06:57:58;;;;;;;30.47;19.93;;;;;;;;;;5054265;28;20439;-81
2023/10/19 07:00:26;;;;;;;30.57;20.17;;;;;;;;;;5052974;28;20975;-84
2023/10/19 07:02:54;;;;;;;24.30;18.17;;;;;;;;;;5054391;28;20475;-83
2023/10/19 07:05:24;;;;;;;24.17;17.80;;;;;;;;;;5053673;28;20969;-82
2023/10/19 07:07:51;;;;;;;25.77;18.60;;;;;;;;;;5054408;28;20475;-81
2023/10/19 07:10:18;;;;;;;27.33;19.50;;;;;;;;;;5054082;28;20893;-82
2023/10/19 07:12:45;;;;;;;24.37;18.67;;;;;;;;;;5054128;28;20443;-83
2023/10/19 07:15:13;;;;;;;27.10;18.40;;;;;;;;;;5053744;28;20464;-83
2023/10/19 07:17:40;;;;;;;25.50;18.47;;;;;;;;;;5054089;28;20522;-83
2023/10/19 07:20:07;;;;;;;26.23;18.67;;;;;;;;;;5054220;28;20439;-83
2023/10/19 07:22:37;;;;;;;28.33;18.63;;;;;;;;;;5053671;28;20475;-83
2023/10/19 07:25:05;;;;;;;27.97;18.47;;;;;;;;;;5053975;28;20514;-83
2023/10/19 07:27:33;;;;;;;25.87;18.17;;;;;;;;;;5052427;28;20562;-82
2023/10/19 07:29:59;;;;;;;29.17;20.07;;;;;;;;;;5052644;28;20505;-83
2023/10/19 07:32:27;;;;;;;21.93;16.80;;;;;;;;;;5053295;28;20471;-83
2023/10/19 07:34:54;;;;;;;25.00;16.97;;;;;;;;;;5054016;28;20539;-82
2023/10/19 07:37:21;;;;;;;25.87;17.50;;;;;;;;;;5054166;28;20822;-83
2023/10/19 07:39:50;;;;;;;26.83;18.20;;;;;;;;;;5052476;28;20984;-83
2023/10/19 07:42:17;;;;;;;24.80;18.03;;;;;;;;;;5052175;28;20467;-82
2023/10/19 07:44:43;;;;;;;21.47;15.23;;;;;;;;;;5053889;28;20464;-83
2023/10/19 07:47:10;;;;;;;21.30;16.30;;;;;;;;;;5051695;28;20471;-82
2023/10/19 07:49:38;;;;;;;23.67;17.30;;;;;;;;;;5053440;28;20487;-83
2023/10/19 07:52:04;;;;;;;21.80;15.67;;;;;;;;;;5053305;28;20903;-82
2023/10/19 07:54:31;;;;;;;20.50;16.17;;;;;;;;;;5053748;28;20464;-82
2023/10/19 07:57:03;;;;;;;21.37;15.33;;;;;;;;;;5053278;28;20460;-82
2023/10/19 07:59:29;;;;;;;24.03;15.33;;;;;;;;;;5052889;28;20440;-84
2023/10/19 08:01:55;;;;;;;21.03;15.90;;;;;;;;;;5052975;28;20468;-82
2023/10/19 08:04:22;;;;;;;24.37;16.57;;;;;;;;;;5053652;28;20464;-81
2023/10/19 08:06:48;;;;;;;16.57;13.50;;;;;;;;;;5053005;28;20467;-83
2023/10/19 08:09:22;;;;;;;23.30;16.77;;;;;;;;;;5055159;28;20458;-84
2023/10/19 08:11:49;;;;;;;18.70;14.37;;;;;;;;;;5057618;28;20505;-83
2023/10/19 08:14:16;;;;;;;21.03;15.23;;;;;;;;;;5057675;28;20464;-83
2023/10/19 08:16:43;;;;;;;18.10;14.00;;;;;;;;;;5057286;28;20977;-83
2023/10/19 08:19:09;;;;;;;19.20;14.73;;;;;;;;;;5056676;28;20440;-83
2023/10/19 08:21:36;;;;;;;17.77;12.87;;;;;;;;;;5057287;28;20463;-83
2023/10/19 08:24:04;;;;;;;18.27;13.10;;;;;;;;;;5057310;28;20467;-83
2023/10/19 08:26:30;;;;;;;16.80;13.17;;;;;;;;;;5055526;28;20541;-83
2023/10/19 08:28:58;;;;;;;16.77;13.10;;;;;;;;;;5057157;28;20447;-83
2023/10/19 08:31:26;;;;;;;17.93;13.07;;;;;;;;;;5056784;28;20479;-83
2023/10/19 08:33:54;;;;;;;16.97;12.23;;;;;;;;;;5055671;28;20455;-83
2023/10/19 08:36:21;;;;;;;15.67;12.80;;;;;;;;;;5057029;28;20885;-82
2023/10/19 08:38:48;;;;;;;16.50;12.37;;;;;;;;;;5055591;28;20440;-81
2023/10/19 08:41:15;;;;;;;17.10;13.00;;;;;;;;;;5055710;28;20471;-82
2023/10/19 08:43:41;;;;;;;16.07;11.93;;;;;;;;;;5055625;28;20471;-83
2023/10/19 08:46:08;;;;;;;15.03;11.83;;;;;;;;;;5056356;28;21001;-83
2023/10/19 08:48:36;;;;;;;16.90;12.20;;;;;;;;;;5056630;28;20470;-82
2023/10/19 08:51:04;;;;;;;15.60;12.60;;;;;;;;;;5056023;28;20468;-82
2023/10/19 08:53:31;;;;;;;13.87;11.80;;;;;;;;;;5056906;28;20460;-83
2023/10/19 08:56:00;;;;;;;13.20;11.90;;;;;;;;;;5056524;28;20472;-82
2023/10/19 08:58:27;;;;;;;14.00;11.37;;;;;;;;;;5055482;28;20531;-83
2023/10/19 09:00:54;;;;;;;12.37;11.07;;;;;;;;;;5056158;28;20476;-83
2023/10/19 09:03:21;;;;;;;11.80;10.50;;;;;;;;;;5056548;28;20439;-82
2023/10/19 09:05:49;;;;;;;10.60;9.50;;;;;;;;;;5056497;28;20464;-83
2023/10/19 09:08:17;;;;;;;11.13;9.83;;;;;;;;;;5056436;28;20942;-83
2023/10/19 09:10:46;;;;;;;12.03;9.70;;;;;;;;;;5056005;28;20478;-82
2023/10/19 09:13:15;;;;;;;12.13;9.80;;;;;;;;;;5056344;28;20992;-82
2023/10/19 09:15:41;;;;;;;13.43;10.87;;;;;;;;;;5056041;28;20468;-83
2023/10/19 09:18:13;;;;;;;12.83;10.17;;;;;;;;;;5056273;28;20443;-81
2023/10/19 09:20:41;;;;;;;11.23;9.00;;;;;;;;;;5055609;28;20472;-80
2023/10/19 09:23:09;;;;;;;11.07;9.87;;;;;;;;;;5055943;28;20450;-84
2023/10/19 09:25:36;;;;;;;12.47;9.80;;;;;;;;;;5056004;28;20475;-81
2023/10/19 09:28:02;;;;;;;12.33;10.57;;;;;;;;;;5055912;28;20436;-84
2023/10/19 09:30:30;;;;;;;13.23;9.67;;;;;;;;;;5055024;28;20518;-81
2023/10/19 09:32:57;;;;;;;12.43;10.20;;;;;;;;;;5054941;28;20472;-83
2023/10/19 09:35:27;;;;;;;10.40;8.80;;;;;;;;;;5055488;28;20535;-81
2023/10/19 09:37:54;;;;;;;12.10;9.80;;;;;;;;;;5054813;28;20535;-81
2023/10/19 09:40:22;;;;;;;9.30;8.40;;;;;;;;;;5055796;28;20808;-83
2023/10/19 09:42:52;;;;;;;13.43;10.90;;;;;;;;;;5056038;28;20436;-83
2023/10/19 09:45:20;;;;;;;10.70;8.80;;;;;;;;;;5055191;28;20997;-83
2023/10/19 09:47:49;;;;;;;11.83;9.93;;;;;;;;;;5054548;28;20448;-83
2023/10/19 09:50:15;;;;;;;9.60;8.47;;;;;;;;;;5053783;28;20480;-82
2023/10/19 09:52:41;;;;;;;11.13;9.83;;;;;;;;;;5055824;28;20810;-82
2023/10/19 09:55:11;;;;;;;10.33;8.30;;;;;;;;;;5055305;28;20471;-82
2023/10/19 09:57:44;;;;;;;9.80;8.80;;;;;;;;;;5055864;28;20432;-82
2023/10/19 10:00:12;;;;;;;11.00;9.07;;;;;;;;;;5055470;28;20416;-83
2023/10/19 10:02:40;;;;;;;8.90;7.93;;;;;;;;;;5054566;28;20489;-82
2023/10/19 10:05:26;;;;;;;8.07;7.23;;;;;;;;;;5055273;28;20467;-84
2023/10/19 10:08:08;;;;;;;10.97;9.33;;;;;;;;;;5054839;28;20953;-82
2023/10/19 10:10:34;;;;;;;8.33;7.53;;;;;;;;;;5054713;28;20498;-82
2023/10/19 10:13:15;;;;;;;8.40;7.53;;;;;;;;;;5055610;28;20960;-82
2023/10/19 10:15:43;;;;;;;8.43;7.70;;;;;;;;;;5054823;28;20844;-83
2023/10/19 10:18:13;;;;;;;9.23;7.10;;;;;;;;;;5055538;28;20440;-83
2023/10/19 10:20:40;;;;;;;8.57;7.50;;;;;;;;;;5053424;28;20920;-82
2023/10/19 10:23:21;;;;;;;7.50;6.70;;;;;;;;;;5055198;28;20438;-82
2023/10/19 10:25:48;;;;;;;8.10;7.20;;;;;;;;;;5054659;28;20467;-83
2023/10/19 10:28:15;;;;;;;8.80;7.40;;;;;;;;;;5054576;28;20945;-83
2023/10/19 10:30:56;;;;;;;9.77;7.20;;;;;;;;;;5054552;28;20459;-82
2023/10/19 10:33:37;;;;;;;8.70;7.80;;;;;;;;;;5053579;28;20455;-83
2023/10/19 10:36:07;;;;;;;8.13;7.33;;;;;;;;;;5053384;28;20525;-82
2023/10/19 10:38:34;;;;;;;8.40;7.60;;;;;;;;;;5054902;28;20451;-83
2023/10/19 10:41:00;;;;;;;7.87;7.17;;;;;;;;;;5054175;28;20482;-83
2023/10/19 10:43:27;;;;;;;9.73;7.40;;;;;;;;;;5054136;28;20527;-82
2023/10/19 10:46:03;;;;;;;7.90;6.53;;;;;;;;;;5053991;28;20892;-82
2023/10/19 10:48:29;;;;;;;7.90;7.20;;;;;;;;;;5054589;28;20456;-82
2023/10/19 10:50:55;;;;;;;7.83;7.03;;;;;;;;;;5053551;28;20574;-82
2023/10/19 10:53:24;;;;;;;8.63;6.83;;;;;;;;;;5054527;28;20443;-82
2023/10/19 10:55:51;;;;;;;7.70;6.90;;;;;;;;;;5054096;28;20550;-82
2023/10/19 10:58:18;;;;;;;7.20;6.30;;;;;;;;;;5053384;28;20436;-82
2023/10/19 11:00:45;;;;;;;7.50;6.73;;;;;;;;;;5053809;28;20981;-82
2023/10/19 11:03:11;;;;;;;7.93;7.20;;;;;;;;;;5054087;28;20446;-83
2023/10/19 11:05:38;;;;;;;7.70;6.97;;;;;;;;;;5053417;28;20460;-82
2023/10/19 11:08:06;;;;;;;7.17;6.57;;;;;;;;;;5054337;28;20946;-82
2023/10/19 11:10:34;;;;;;;8.30;7.33;;;;;;;;;;5052452;28;20464;-83
2023/10/19 11:13:01;;;;;;;6.77;6.17;;;;;;;;;;5052702;28;20863;-83
2023/10/19 11:15:27;;;;;;;6.40;5.80;;;;;;;;;;5053679;28;20460;-83
2023/10/19 11:17:54;;;;;;;7.17;6.50;;;;;;;;;;5054322;28;20443;-83
2023/10/19 11:20:23;;;;;;;8.97;7.60;;;;;;;;;;5053407;28;20441;-83
2023/10/19 11:22:50;;;;;;;8.27;6.93;;;;;;;;;;5054522;28;20431;-84
2023/10/19 11:25:22;;;;;;;7.23;6.20;;;;;;;;;;5053548;28;20463;-83
2023/10/19 11:27:52;;;;;;;7.40;6.70;;;;;;;;;;5054228;28;20814;-83
2023/10/19 11:30:25;;;;;;;8.50;7.13;;;;;;;;;;5053237;28;20447;-84
2023/10/19 11:32:56;;;;;;;8.63;7.17;;;;;;;;;;5052288;28;20531;-83
2023/10/19 11:35:23;;;;;;;7.70;6.90;;;;;;;;;;5053194;28;20961;-83
2023/10/19 11:37:49;;;;;;;8.67;6.93;;;;;;;;;;5053677;28;20436;-82
2023/10/19 11:40:16;;;;;;;7.70;6.77;;;;;;;;;;5051939;28;20861;-82
2023/10/19 11:42:43;;;;;;;7.70;6.90;;;;;;;;;;5052338;28;20444;-83
2023/10/19 11:45:11;;;;;;;9.60;7.63;;;;;;;;;;5051983;28;21093;-83
2023/10/19 11:47:38;;;;;;;8.30;7.50;;;;;;;;;;5052389;28;20806;-83
2023/10/19 11:50:05;;;;;;;10.10;8.17;;;;;;;;;;5053288;28;20941;-83
2023/10/19 11:52:31;;;;;;;8.30;7.27;;;;;;;;;;5053272;28;20478;-83
2023/10/19 11:54:58;;;;;;;9.80;8.80;;;;;;;;;;5053480;28;20825;-83
2023/10/19 11:57:24;;;;;;;9.90;8.40;;;;;;;;;;5053211;28;20831;-83
2023/10/19 11:59:53;;;;;;;9.43;8.50;;;;;;;;;;5053332;28;20999;-84
2023/10/19 12:02:21;;;;;;;9.93;8.43;;;;;;;;;;5053190;28;20517;-83
2023/10/19 12:04:47;;;;;;;11.20;9.17;;;;;;;;;;5053043;28;20456;-84
2023/10/19 12:07:14;;;;;;;11.80;10.00;;;;;;;;;;5053111;28;20476;-83
2023/10/19 12:09:41;;;;;;;12.53;10.63;;;;;;;;;;5053250;28;20954;-83
2023/10/19 12:12:08;;;;;;;11.17;9.40;;;;;;;;;;5052939;28;20472;-83
2023/10/19 12:14:35;;;;;;;12.53;10.40;;;;;;;;;;5051931;28;20467;-83
2023/10/19 12:17:02;;;;;;;12.83;11.53;;;;;;;;;;5051597;28;20550;-83
2023/10/19 12:19:30;;;;;;;10.60;9.50;;;;;;;;;;5053812;28;20530;-83
2023/10/19 12:21:57;;;;;;;12.60;10.90;;;;;;;;;;5053181;28;20841;-83
2023/10/19 12:24:23;;;;;;;12.10;10.33;;;;;;;;;;5053161;28;20475;-83
2023/10/19 12:26:51;;;;;;;12.37;10.63;;;;;;;;;;5052569;28;21019;-83
2023/10/19 12:29:20;;;;;;;12.33;11.03;;;;;;;;;;5053097;28;20486;-83
2023/10/19 12:31:47;;;;;;;13.50;10.37;;;;;;;;;;5051209;28;20526;-84
2023/10/19 12:34:13;;;;;;;12.23;11.03;;;;;;;;;;5053793;28;20471;-83
2023/10/19 12:36:41;;;;;;;13.13;11.50;;;;;;;;;;5051588;28;21019;-83
2023/10/19 12:39:09;;;;;;;11.80;10.60;;;;;;;;;;5053371;28;20431;-83
2023/10/19 12:41:35;;;;;;;13.70;11.30;;;;;;;;;;5051602;28;20459;-83
2023/10/19 12:44:08;;;;;;;12.47;10.53;;;;;;;;;;5052072;28;20473;-81
2023/10/19 12:46:36;;;;;;;13.30;11.03;;;;;;;;;;5051778;28;20472;-82
2023/10/19 12:49:02;;;;;;;13.70;11.00;;;;;;;;;;5053897;28;20534;-82
2023/10/19 12:51:29;;;;;;;12.37;10.47;;;;;;;;;;5052844;28;20480;-82
2023/10/19 12:53:58;;;;;;;12.33;10.33;;;;;;;;;;5053111;28;20495;-82
2023/10/19 12:56:29;;;;;;;12.90;10.70;;;;;;;;;;5055527;28;20475;-83
2023/10/19 12:58:55;;;;;;;12.50;10.27;;;;;;;;;;5055818;28;20423;-84
2023/10/19 13:01:21;;;;;;;12.17;10.90;;;;;;;;;;5055971;28;20471;-83
2023/10/19 13:03:49;;;;;;;11.40;10.20;;;;;;;;;;5056517;28;20472;-82
2023/10/19 13:06:16;;;;;;;11.93;9.37;;;;;;;;;;5056188;28;20467;-83
2023/10/19 13:08:42;;;;;;;11.07;9.30;;;;;;;;;;5056345;28;20439;-83
2023/10/19 13:11:14;;;;;;;11.30;10.10;;;;;;;;;;5056216;28;20476;-83
2023/10/19 13:13:40;;;;;;;12.30;9.93;;;;;;;;;;5056582;28;20953;-83
2023/10/19 13:16:08;;;;;;;12.23;9.53;;;;;;;;;;5054518;28;20901;-83
2023/10/19 13:18:35;;;;;;;14.00;11.30;;;;;;;;;;5056716;28;20444;-83
2023/10/19 13:21:04;;;;;;;9.87;8.83;;;;;;;;;;5055995;28;20463;-83
2023/10/19 13:23:32;;;;;;;12.90;11.17;;;;;;;;;;5054973;28;20460;-83
2023/10/19 13:26:08;;;;;;;11.03;9.73;;;;;;;;;;5056036;28;20476;-83
2023/10/19 13:28:37;;;;;;;14.40;10.60;;;;;;;;;;5056605;28;20420;-82
2023/10/19 13:31:04;;;;;;;11.70;10.40;;;;;;;;;;5056638;28;20479;-83
2023/10/19 13:33:30;;;;;;;12.53;11.23;;;;;;;;;;5055518;28;20463;-83
2023/10/19 13:35:57;;;;;;;12.40;11.07;;;;;;;;;;5057560;28;20496;-82
2023/10/19 13:38:23;;;;;;;15.13;10.83;;;;;;;;;;5056609;28;20459;-82
2023/10/19 13:40:50;;;;;;;14.50;11.47;;;;;;;;;;5056112;28;20475;-82
2023/10/19 13:43:17;;;;;;;11.90;10.27;;;;;;;;;;5055924;28;20463;-82
2023/10/19 13:45:46;;;;;;;14.57;12.73;;;;;;;;;;5055569;28;20511;-82
2023/10/19 13:48:13;;;;;;;17.13;12.10;;;;;;;;;;5055894;28;20451;-82
2023/10/19 13:50:42;;;;;;;13.00;11.63;;;;;;;;;;5055745;28;20474;-82
2023/10/19 13:53:09;;;;;;;13.63;11.33;;;;;;;;;;5056071;28;20476;-82
2023/10/19 13:55:36;;;;;;;13.63;12.20;;;;;;;;;;5055539;28;20491;-82
2023/10/19 13:58:02;;;;;;;12.30;10.80;;;;;;;;;;5055952;28;20450;-82
2023/10/19 14:00:35;;;;;;;13.83;11.80;;;;;;;;;;5054176;28;20459;-83
2023/10/19 14:03:04;;;;;;;16.60;11.97;;;;;;;;;;5056198;28;20436;-82
2023/10/19 14:05:31;;;;;;;14.17;11.97;;;;;;;;;;5054990;28;20965;-82
2023/10/19 14:07:58;;;;;;;15.90;12.80;;;;;;;;;;5055890;28;20522;-82
2023/10/19 14:10:25;;;;;;;15.07;12.93;;;;;;;;;;5053826;28;20462;-82
2023/10/19 14:12:51;;;;;;;16.17;13.47;;;;;;;;;;5055530;28;20845;-82
2023/10/19 14:15:18;;;;;;;16.80;14.30;;;;;;;;;;5054786;28;20471;-82
2023/10/19 14:17:45;;;;;;;17.17;12.77;;;;;;;;;;5055346;28;20892;-82
2023/10/19 14:20:14;;;;;;;16.67;13.80;;;;;;;;;;5053905;28;20937;-82
2023/10/19 14:22:41;;;;;;;16.73;14.00;;;;;;;;;;5055604;28;20440;-82
2023/10/19 14:25:12;;;;;;;15.70;13.10;;;;;;;;;;5054059;28;20517;-82
2023/10/19 14:27:38;;;;;;;14.53;12.67;;;;;;;;;;5055311;28;20527;-82